sensor_id;sensor_type;location;lat;lon;timestamp;P1;durP1;ratioP1;P2;durP2;ratioP2
67941;SDS011;54731;42.600;23.476;2023-03-03T00:00:58;8.57;;;4.27;;
67941;SDS011;54731;42.600;23.476;2023-03-03T00:03:24;7.77;;;3.90;;
67941;SDS011;54731;42.600;23.476;2023-03-03T00:05:50;6.80;;;3.75;;
67941;SDS011;54731;42.600;23.476;2023-03-03T00:08:17;6.65;;;3.88;;
67941;SDS011;54731;42.600;23.476;2023-03-03T00:10:43;6.25;;;3.40;;
67941;SDS011;54731;42.600;23.476;2023-03-03T00:13:14;5.70;;;3.73;;
67941;SDS011;54731;42.600;23.476;2023-03-03T00:15:41;6.13;;;4.15;;
67941;SDS011;54731;42.600;23.476;2023-03-03T00:18:16;6.73;;;3.53;;
67941;SDS011;54731;42.600;23.476;2023-03-03T00:20:58;6.93;;;3.72;;
67941;SDS011;54731;42.600;23.476;2023-03-03T00:23:30;6.28;;;3.88;;
67941;SDS011;54731;42.600;23.476;2023-03-03T00:25:59;7.23;;;3.73;;
67941;SDS011;54731;42.600;23.476;2023-03-03T00:28:27;5.88;;;3.63;;
67941;SDS011;54731;42.600;23.476;2023-03-03T00:30:53;5.80;;;3.25;;
67941;SDS011;54731;42.600;23.476;2023-03-03T00:33:28;5.35;;;3.65;;
67941;SDS011;54731;42.600;23.476;2023-03-03T00:35:55;5.25;;;3.38;;
67941;SDS011;54731;42.600;23.476;2023-03-03T00:38:21;5.07;;;2.85;;
67941;SDS011;54731;42.600;23.476;2023-03-03T00:40:46;5.35;;;3.35;;
67941;SDS011;54731;42.600;23.476;2023-03-03T00:45:48;5.18;;;3.70;;
67941;SDS011;54731;42.600;23.476;2023-03-03T00:48:22;7.22;;;3.63;;
67941;SDS011;54731;42.600;23.476;2023-03-03T00:51:01;8.25;;;3.92;;
67941;SDS011;54731;42.600;23.476;2023-03-03T00:53:35;6.22;;;3.58;;
67941;SDS011;54731;42.600;23.476;2023-03-03T00:56:01;6.27;;;3.50;;
67941;SDS011;54731;42.600;23.476;2023-03-03T00:58:26;7.07;;;4.17;;
67941;SDS011;54731;42.600;23.476;2023-03-03T01:00:52;7.77;;;3.80;;
67941;SDS011;54731;42.600;23.476;2023-03-03T01:03:22;7.47;;;4.03;;
67941;SDS011;54731;42.600;23.476;2023-03-03T01:05:50;7.28;;;4.30;;
67941;SDS011;54731;42.600;23.476;2023-03-03T01:08:16;13.55;;;6.47;;
67941;SDS011;54731;42.600;23.476;2023-03-03T01:10:45;9.73;;;4.93;;
67941;SDS011;54731;42.600;23.476;2023-03-03T01:13:13;6.82;;;3.83;;
67941;SDS011;54731;42.600;23.476;2023-03-03T01:15:38;6.70;;;4.20;;
67941;SDS011;54731;42.600;23.476;2023-03-03T01:18:04;8.37;;;4.33;;
67941;SDS011;54731;42.600;23.476;2023-03-03T01:20:29;9.43;;;4.85;;
67941;SDS011;54731;42.600;23.476;2023-03-03T01:22:55;7.23;;;4.03;;
67941;SDS011;54731;42.600;23.476;2023-03-03T01:25:20;9.10;;;5.00;;
67941;SDS011;54731;42.600;23.476;2023-03-03T01:27:45;7.90;;;4.67;;
67941;SDS011;54731;42.600;23.476;2023-03-03T01:30:11;8.63;;;4.90;;
67941;SDS011;54731;42.600;23.476;2023-03-03T01:32:36;9.98;;;4.70;;
67941;SDS011;54731;42.600;23.476;2023-03-03T01:35:02;7.47;;;4.57;;
67941;SDS011;54731;42.600;23.476;2023-03-03T01:37:27;7.87;;;4.50;;
67941;SDS011;54731;42.600;23.476;2023-03-03T01:39:53;7.57;;;4.40;;
67941;SDS011;54731;42.600;23.476;2023-03-03T01:42:19;9.18;;;4.18;;
67941;SDS011;54731;42.600;23.476;2023-03-03T01:44:45;6.47;;;3.85;;
67941;SDS011;54731;42.600;23.476;2023-03-03T01:49:50;6.37;;;4.27;;
67941;SDS011;54731;42.600;23.476;2023-03-03T01:52:30;11.32;;;4.88;;
67941;SDS011;54731;42.600;23.476;2023-03-03T01:55:01;9.02;;;4.60;;
67941;SDS011;54731;42.600;23.476;2023-03-03T01:57:31;7.38;;;4.10;;
67941;SDS011;54731;42.600;23.476;2023-03-03T01:59:59;5.45;;;3.58;;
67941;SDS011;54731;42.600;23.476;2023-03-03T02:02:28;7.20;;;4.00;;
67941;SDS011;54731;42.600;23.476;2023-03-03T02:04:54;10.18;;;3.67;;
67941;SDS011;54731;42.600;23.476;2023-03-03T02:07:19;6.75;;;3.55;;
67941;SDS011;54731;42.600;23.476;2023-03-03T02:12:49;7.65;;;3.72;;
67941;SDS011;54731;42.600;23.476;2023-03-03T02:17:44;9.48;;;4.55;;
67941;SDS011;54731;42.600;23.476;2023-03-03T02:23:06;9.98;;;4.60;;
67941;SDS011;54731;42.600;23.476;2023-03-03T02:25:48;9.23;;;5.22;;
67941;SDS011;54731;42.600;23.476;2023-03-03T02:28:29;7.35;;;4.40;;
67941;SDS011;54731;42.600;23.476;2023-03-03T02:30:56;7.38;;;4.78;;
67941;SDS011;54731;42.600;23.476;2023-03-03T02:33:22;10.13;;;4.97;;
67941;SDS011;54731;42.600;23.476;2023-03-03T02:35:48;7.80;;;4.85;;
67941;SDS011;54731;42.600;23.476;2023-03-03T02:44:01;9.93;;;5.30;;
67941;SDS011;54731;42.600;23.476;2023-03-03T02:46:27;9.07;;;5.22;;
67941;SDS011;54731;42.600;23.476;2023-03-03T02:48:56;19.70;;;8.87;;
67941;SDS011;54731;42.600;23.476;2023-03-03T02:51:21;29.77;;;11.82;;
67941;SDS011;54731;42.600;23.476;2023-03-03T02:53:46;22.02;;;9.48;;
67941;SDS011;54731;42.600;23.476;2023-03-03T02:56:12;14.93;;;6.70;;
67941;SDS011;54731;42.600;23.476;2023-03-03T02:58:37;18.17;;;8.30;;
67941;SDS011;54731;42.600;23.476;2023-03-03T03:01:02;19.70;;;8.67;;
67941;SDS011;54731;42.600;23.476;2023-03-03T03:03:28;17.58;;;7.50;;
67941;SDS011;54731;42.600;23.476;2023-03-03T03:05:53;12.47;;;6.70;;
67941;SDS011;54731;42.600;23.476;2023-03-03T03:08:19;15.90;;;8.17;;
67941;SDS011;54731;42.600;23.476;2023-03-03T03:10:44;12.10;;;7.53;;
67941;SDS011;54731;42.600;23.476;2023-03-03T03:13:10;10.53;;;6.30;;
67941;SDS011;54731;42.600;23.476;2023-03-03T03:15:35;11.13;;;6.53;;
67941;SDS011;54731;42.600;23.476;2023-03-03T03:18:00;10.52;;;6.50;;
67941;SDS011;54731;42.600;23.476;2023-03-03T03:20:26;11.00;;;6.30;;
67941;SDS011;54731;42.600;23.476;2023-03-03T03:22:51;15.43;;;7.77;;
67941;SDS011;54731;42.600;23.476;2023-03-03T03:25:16;13.27;;;7.40;;
67941;SDS011;54731;42.600;23.476;2023-03-03T03:27:42;13.87;;;6.77;;
67941;SDS011;54731;42.600;23.476;2023-03-03T03:30:07;12.30;;;6.50;;
67941;SDS011;54731;42.600;23.476;2023-03-03T03:32:33;12.02;;;6.80;;
67941;SDS011;54731;42.600;23.476;2023-03-03T03:34:58;12.80;;;8.00;;
67941;SDS011;54731;42.600;23.476;2023-03-03T03:37:23;14.00;;;8.20;;
67941;SDS011;54731;42.600;23.476;2023-03-03T03:39:49;18.80;;;9.07;;
67941;SDS011;54731;42.600;23.476;2023-03-03T03:42:14;16.27;;;7.77;;
67941;SDS011;54731;42.600;23.476;2023-03-03T03:44:39;14.48;;;8.05;;
67941;SDS011;54731;42.600;23.476;2023-03-03T03:47:05;14.43;;;8.40;;
67941;SDS011;54731;42.600;23.476;2023-03-03T03:49:30;31.43;;;12.60;;
67941;SDS011;54731;42.600;23.476;2023-03-03T03:51:55;16.37;;;9.37;;
67941;SDS011;54731;42.600;23.476;2023-03-03T03:54:21;12.30;;;7.07;;
67941;SDS011;54731;42.600;23.476;2023-03-03T03:56:46;12.80;;;6.83;;
67941;SDS011;54731;42.600;23.476;2023-03-03T03:59:11;14.70;;;8.23;;
67941;SDS011;54731;42.600;23.476;2023-03-03T04:01:37;13.70;;;7.63;;
67941;SDS011;54731;42.600;23.476;2023-03-03T04:04:02;14.10;;;7.90;;
67941;SDS011;54731;42.600;23.476;2023-03-03T04:06:27;8.38;;;5.60;;
67941;SDS011;54731;42.600;23.476;2023-03-03T04:08:54;9.33;;;5.83;;
67941;SDS011;54731;42.600;23.476;2023-03-03T04:11:20;9.40;;;5.60;;
67941;SDS011;54731;42.600;23.476;2023-03-03T04:13:45;7.97;;;5.05;;
67941;SDS011;54731;42.600;23.476;2023-03-03T04:16:10;9.90;;;4.90;;
67941;SDS011;54731;42.600;23.476;2023-03-03T04:18:35;7.67;;;4.97;;
67941;SDS011;54731;42.600;23.476;2023-03-03T04:21:01;7.77;;;4.60;;
67941;SDS011;54731;42.600;23.476;2023-03-03T04:23:26;7.37;;;4.47;;
67941;SDS011;54731;42.600;23.476;2023-03-03T04:25:52;6.60;;;3.57;;
67941;SDS011;54731;42.600;23.476;2023-03-03T04:28:17;6.73;;;3.40;;
67941;SDS011;54731;42.600;23.476;2023-03-03T04:30:42;5.07;;;2.97;;
67941;SDS011;54731;42.600;23.476;2023-03-03T04:33:08;6.57;;;3.63;;
67941;SDS011;54731;42.600;23.476;2023-03-03T04:35:33;5.60;;;3.67;;
67941;SDS011;54731;42.600;23.476;2023-03-03T04:37:59;5.57;;;3.80;;
67941;SDS011;54731;42.600;23.476;2023-03-03T04:40:24;6.27;;;3.13;;
67941;SDS011;54731;42.600;23.476;2023-03-03T04:42:49;4.93;;;2.93;;
67941;SDS011;54731;42.600;23.476;2023-03-03T04:45:15;5.38;;;2.88;;
67941;SDS011;54731;42.600;23.476;2023-03-03T04:47:40;6.33;;;3.33;;
67941;SDS011;54731;42.600;23.476;2023-03-03T04:50:06;7.23;;;4.20;;
67941;SDS011;54731;42.600;23.476;2023-03-03T04:52:32;7.50;;;4.20;;
67941;SDS011;54731;42.600;23.476;2023-03-03T04:54:57;4.43;;;2.60;;
67941;SDS011;54731;42.600;23.476;2023-03-03T04:57:23;2.73;;;1.73;;
67941;SDS011;54731;42.600;23.476;2023-03-03T04:59:48;8.83;;;3.70;;
67941;SDS011;54731;42.600;23.476;2023-03-03T05:02:13;5.50;;;3.40;;
67941;SDS011;54731;42.600;23.476;2023-03-03T05:04:39;11.45;;;6.57;;
67941;SDS011;54731;42.600;23.476;2023-03-03T05:07:04;14.17;;;7.20;;
67941;SDS011;54731;42.600;23.476;2023-03-03T05:09:29;10.67;;;6.27;;
67941;SDS011;54731;42.600;23.476;2023-03-03T05:11:55;7.53;;;4.43;;
67941;SDS011;54731;42.600;23.476;2023-03-03T05:14:20;128.60;;;59.53;;
67941;SDS011;54731;42.600;23.476;2023-03-03T05:16:45;42.87;;;23.87;;
67941;SDS011;54731;42.600;23.476;2023-03-03T05:19:11;362.90;;;122.07;;
67941;SDS011;54731;42.600;23.476;2023-03-03T05:21:37;225.37;;;75.40;;
67941;SDS011;54731;42.600;23.476;2023-03-03T05:24:02;58.37;;;22.07;;
67941;SDS011;54731;42.600;23.476;2023-03-03T05:26:27;13.95;;;6.55;;
67941;SDS011;54731;42.600;23.476;2023-03-03T05:28:53;13.43;;;5.40;;
67941;SDS011;54731;42.600;23.476;2023-03-03T05:31:18;21.03;;;9.20;;
67941;SDS011;54731;42.600;23.476;2023-03-03T05:33:43;7.60;;;3.90;;
67941;SDS011;54731;42.600;23.476;2023-03-03T05:36:09;10.03;;;5.63;;
67941;SDS011;54731;42.600;23.476;2023-03-03T05:38:34;18.63;;;10.00;;
67941;SDS011;54731;42.600;23.476;2023-03-03T05:40:59;7.03;;;3.87;;
67941;SDS011;54731;42.600;23.476;2023-03-03T05:43:24;69.67;;;34.07;;
67941;SDS011;54731;42.600;23.476;2023-03-03T05:45:53;19.47;;;10.33;;
67941;SDS011;54731;42.600;23.476;2023-03-03T05:48:20;11.10;;;5.65;;
67941;SDS011;54731;42.600;23.476;2023-03-03T05:50:45;28.23;;;17.97;;
67941;SDS011;54731;42.600;23.476;2023-03-03T05:53:11;29.00;;;11.67;;
67941;SDS011;54731;42.600;23.476;2023-03-03T05:55:36;31.73;;;11.53;;
67941;SDS011;54731;42.600;23.476;2023-03-03T05:58:01;21.27;;;13.85;;
67941;SDS011;54731;42.600;23.476;2023-03-03T06:00:26;17.67;;;8.23;;
67941;SDS011;54731;42.600;23.476;2023-03-03T06:02:52;13.97;;;7.60;;
67941;SDS011;54731;42.600;23.476;2023-03-03T06:05:17;36.27;;;17.87;;
67941;SDS011;54731;42.600;23.476;2023-03-03T06:07:43;21.47;;;10.50;;
67941;SDS011;54731;42.600;23.476;2023-03-03T06:10:08;19.00;;;7.77;;
67941;SDS011;54731;42.600;23.476;2023-03-03T06:12:34;11.60;;;6.25;;
67941;SDS011;54731;42.600;23.476;2023-03-03T06:14:59;8.80;;;4.63;;
67941;SDS011;54731;42.600;23.476;2023-03-03T06:17:24;51.30;;;20.87;;
67941;SDS011;54731;42.600;23.476;2023-03-03T06:19:50;26.40;;;9.47;;
67941;SDS011;54731;42.600;23.476;2023-03-03T06:22:15;15.60;;;6.00;;
67941;SDS011;54731;42.600;23.476;2023-03-03T06:24:40;6.13;;;4.17;;
67941;SDS011;54731;42.600;23.476;2023-03-03T06:27:06;7.97;;;4.82;;
67941;SDS011;54731;42.600;23.476;2023-03-03T06:29:31;7.00;;;4.30;;
67941;SDS011;54731;42.600;23.476;2023-03-03T06:31:56;7.80;;;4.40;;
67941;SDS011;54731;42.600;23.476;2023-03-03T06:34:21;11.47;;;6.07;;
67941;SDS011;54731;42.600;23.476;2023-03-03T06:36:47;12.67;;;6.60;;
67941;SDS011;54731;42.600;23.476;2023-03-03T06:39:12;14.47;;;8.70;;
67941;SDS011;54731;42.600;23.476;2023-03-03T06:41:37;16.97;;;6.30;;
67941;SDS011;54731;42.600;23.476;2023-03-03T06:44:03;27.03;;;9.60;;
67941;SDS011;54731;42.600;23.476;2023-03-03T06:46:28;12.23;;;5.90;;
67941;SDS011;54731;42.600;23.476;2023-03-03T06:48:54;9.13;;;5.13;;
67941;SDS011;54731;42.600;23.476;2023-03-03T06:54:04;7.32;;;4.05;;
67941;SDS011;54731;42.600;23.476;2023-03-03T06:56:35;11.50;;;6.77;;
67941;SDS011;54731;42.600;23.476;2023-03-03T06:59:01;9.48;;;4.38;;
67941;SDS011;54731;42.600;23.476;2023-03-03T07:01:34;8.10;;;4.05;;
67941;SDS011;54731;42.600;23.476;2023-03-03T07:04:03;23.85;;;8.05;;
67941;SDS011;54731;42.600;23.476;2023-03-03T07:06:35;28.25;;;12.20;;
67941;SDS011;54731;42.600;23.476;2023-03-03T07:09:01;19.47;;;8.93;;
67941;SDS011;54731;42.600;23.476;2023-03-03T07:11:29;9.27;;;5.10;;
67941;SDS011;54731;42.600;23.476;2023-03-03T07:13:55;9.87;;;5.63;;
67941;SDS011;54731;42.600;23.476;2023-03-03T07:16:24;11.90;;;8.03;;
67941;SDS011;54731;42.600;23.476;2023-03-03T07:18:58;25.63;;;19.25;;
67941;SDS011;54731;42.600;23.476;2023-03-03T07:21:27;11.70;;;8.32;;
67941;SDS011;54731;42.600;23.476;2023-03-03T07:23:56;7.45;;;4.65;;
67941;SDS011;54731;42.600;23.476;2023-03-03T07:26:24;15.55;;;7.80;;
67941;SDS011;54731;42.600;23.476;2023-03-03T07:28:53;17.77;;;8.75;;
67941;SDS011;54731;42.600;23.476;2023-03-03T07:31:30;21.73;;;11.52;;
67941;SDS011;54731;42.600;23.476;2023-03-03T07:34:00;20.35;;;13.43;;
67941;SDS011;54731;42.600;23.476;2023-03-03T07:36:34;19.52;;;8.20;;
67941;SDS011;54731;42.600;23.476;2023-03-03T07:39:16;26.52;;;18.73;;
67941;SDS011;54731;42.600;23.476;2023-03-03T07:41:43;23.73;;;16.15;;
67941;SDS011;54731;42.600;23.476;2023-03-03T07:44:12;20.00;;;8.60;;
67941;SDS011;54731;42.600;23.476;2023-03-03T07:46:48;15.25;;;7.63;;
67941;SDS011;54731;42.600;23.476;2023-03-03T07:49:21;14.65;;;7.18;;
67941;SDS011;54731;42.600;23.476;2023-03-03T07:51:59;21.85;;;7.97;;
67941;SDS011;54731;42.600;23.476;2023-03-03T07:54:35;21.63;;;8.13;;
67941;SDS011;54731;42.600;23.476;2023-03-03T07:59:36;26.77;;;7.25;;
67941;SDS011;54731;42.600;23.476;2023-03-03T08:02:02;46.38;;;16.23;;
67941;SDS011;54731;42.600;23.476;2023-03-03T08:04:41;12.10;;;6.47;;
67941;SDS011;54731;42.600;23.476;2023-03-03T08:07:13;10.65;;;6.20;;
67941;SDS011;54731;42.600;23.476;2023-03-03T08:09:42;15.07;;;8.05;;
67941;SDS011;54731;42.600;23.476;2023-03-03T08:14:42;6.75;;;4.25;;
67941;SDS011;54731;42.600;23.476;2023-03-03T08:17:28;6.57;;;3.90;;
67941;SDS011;54731;42.600;23.476;2023-03-03T08:20:00;13.85;;;6.70;;
67941;SDS011;54731;42.600;23.476;2023-03-03T08:22:34;12.43;;;8.60;;
67941;SDS011;54731;42.600;23.476;2023-03-03T08:25:00;9.63;;;6.13;;
67941;SDS011;54731;42.600;23.476;2023-03-03T08:27:25;6.37;;;3.97;;
67941;SDS011;54731;42.600;23.476;2023-03-03T08:29:50;13.27;;;5.20;;
67941;SDS011;54731;42.600;23.476;2023-03-03T08:32:16;10.00;;;5.33;;
67941;SDS011;54731;42.600;23.476;2023-03-03T08:34:49;10.77;;;5.07;;
67941;SDS011;54731;42.600;23.476;2023-03-03T08:37:14;6.27;;;3.37;;
67941;SDS011;54731;42.600;23.476;2023-03-03T08:39:39;13.57;;;5.37;;
67941;SDS011;54731;42.600;23.476;2023-03-03T08:42:05;20.60;;;6.67;;
67941;SDS011;54731;42.600;23.476;2023-03-03T08:44:30;16.85;;;6.53;;
67941;SDS011;54731;42.600;23.476;2023-03-03T08:46:55;13.40;;;5.40;;
67941;SDS011;54731;42.600;23.476;2023-03-03T08:49:21;7.57;;;3.87;;
67941;SDS011;54731;42.600;23.476;2023-03-03T08:51:46;6.50;;;4.57;;
67941;SDS011;54731;42.600;23.476;2023-03-03T08:54:11;5.23;;;3.17;;
67941;SDS011;54731;42.600;23.476;2023-03-03T08:56:37;5.43;;;2.90;;
67941;SDS011;54731;42.600;23.476;2023-03-03T08:59:02;27.90;;;9.23;;
67941;SDS011;54731;42.600;23.476;2023-03-03T09:01:27;29.90;;;13.53;;
67941;SDS011;54731;42.600;23.476;2023-03-03T09:03:53;28.50;;;13.43;;
67941;SDS011;54731;42.600;23.476;2023-03-03T09:06:19;30.63;;;13.53;;
67941;SDS011;54731;42.600;23.476;2023-03-03T09:08:44;8.50;;;5.60;;
67941;SDS011;54731;42.600;23.476;2023-03-03T09:11:12;8.98;;;5.38;;
67941;SDS011;54731;42.600;23.476;2023-03-03T09:13:38;11.03;;;6.90;;
67941;SDS011;54731;42.600;23.476;2023-03-03T09:16:12;14.40;;;6.78;;
67941;SDS011;54731;42.600;23.476;2023-03-03T09:18:38;9.80;;;4.43;;
67941;SDS011;54731;42.600;23.476;2023-03-03T09:21:15;8.88;;;4.28;;
67941;SDS011;54731;42.600;23.476;2023-03-03T09:23:41;12.05;;;6.30;;
67941;SDS011;54731;42.600;23.476;2023-03-03T09:28:51;9.20;;;5.35;;
67941;SDS011;54731;42.600;23.476;2023-03-03T09:31:24;8.97;;;6.17;;
67941;SDS011;54731;42.600;23.476;2023-03-03T09:34:00;7.55;;;4.20;;
67941;SDS011;54731;42.600;23.476;2023-03-03T09:38:51;18.80;;;10.30;;
67941;SDS011;54731;42.600;23.476;2023-03-03T10:06:27;10.13;;;7.28;;
67941;SDS011;54731;42.600;23.476;2023-03-03T10:30:24;9.68;;;6.43;;
67941;SDS011;54731;42.600;23.476;2023-03-03T10:33:31;8.18;;;5.60;;
67941;SDS011;54731;42.600;23.476;2023-03-03T10:38:38;11.48;;;7.07;;
67941;SDS011;54731;42.600;23.476;2023-03-03T10:54:47;9.60;;;6.30;;
67941;SDS011;54731;42.600;23.476;2023-03-03T11:11:40;13.18;;;7.50;;
67941;SDS011;54731;42.600;23.476;2023-03-03T11:25:36;14.43;;;10.20;;
67941;SDS011;54731;42.600;23.476;2023-03-03T11:31:06;12.70;;;7.90;;
67941;SDS011;54731;42.600;23.476;2023-03-03T11:33:41;13.35;;;9.18;;
67941;SDS011;54731;42.600;23.476;2023-03-03T11:36:35;15.27;;;10.50;;
67941;SDS011;54731;42.600;23.476;2023-03-03T11:39:04;18.90;;;11.40;;
67941;SDS011;54731;42.600;23.476;2023-03-03T11:44:28;22.70;;;12.45;;
67941;SDS011;54731;42.600;23.476;2023-03-03T11:47:46;17.70;;;10.30;;
67941;SDS011;54731;42.600;23.476;2023-03-03T11:55:37;15.60;;;9.93;;
67941;SDS011;54731;42.600;23.476;2023-03-03T11:58:24;22.42;;;11.20;;
67941;SDS011;54731;42.600;23.476;2023-03-03T12:01:54;20.92;;;12.23;;
67941;SDS011;54731;42.600;23.476;2023-03-03T12:03:59;17.80;;;10.38;;
67941;SDS011;54731;42.600;23.476;2023-03-03T12:17:38;23.38;;;14.00;;
67941;SDS011;54731;42.600;23.476;2023-03-03T12:20:17;32.20;;;17.15;;
67941;SDS011;54731;42.600;23.476;2023-03-03T12:25:56;31.98;;;16.73;;
67941;SDS011;54731;42.600;23.476;2023-03-03T12:28:29;19.67;;;12.70;;
67941;SDS011;54731;42.600;23.476;2023-03-03T12:31:03;20.73;;;11.52;;
67941;SDS011;54731;42.600;23.476;2023-03-03T12:33:57;19.23;;;11.88;;
67941;SDS011;54731;42.600;23.476;2023-03-03T12:39:29;24.13;;;14.50;;
67941;SDS011;54731;42.600;23.476;2023-03-03T12:42:02;24.40;;;13.57;;
67941;SDS011;54731;42.600;23.476;2023-03-03T12:52:46;30.85;;;17.08;;
67941;SDS011;54731;42.600;23.476;2023-03-03T13:12:27;30.45;;;20.05;;
67941;SDS011;54731;42.600;23.476;2023-03-03T13:15:01;33.42;;;19.40;;
67941;SDS011;54731;42.600;23.476;2023-03-03T13:17:40;25.27;;;17.48;;
67941;SDS011;54731;42.600;23.476;2023-03-03T13:20:29;33.53;;;23.00;;
67941;SDS011;54731;42.600;23.476;2023-03-03T13:30:49;30.05;;;18.50;;
67941;SDS011;54731;42.600;23.476;2023-03-03T13:33:30;30.33;;;18.08;;
67941;SDS011;54731;42.600;23.476;2023-03-03T13:36:00;30.20;;;18.73;;
67941;SDS011;54731;42.600;23.476;2023-03-03T13:38:31;29.15;;;15.07;;
67941;SDS011;54731;42.600;23.476;2023-03-03T13:44:08;35.78;;;22.05;;
67941;SDS011;54731;42.600;23.476;2023-03-03T13:52:04;28.60;;;16.30;;
67941;SDS011;54731;42.600;23.476;2023-03-03T13:54:49;30.40;;;17.08;;
67941;SDS011;54731;42.600;23.476;2023-03-03T13:58:10;27.17;;;16.27;;
67941;SDS011;54731;42.600;23.476;2023-03-03T14:05:44;39.08;;;21.60;;
67941;SDS011;54731;42.600;23.476;2023-03-03T14:16:58;23.65;;;14.30;;
67941;SDS011;54731;42.600;23.476;2023-03-03T14:19:46;30.35;;;16.98;;
67941;SDS011;54731;42.600;23.476;2023-03-03T14:22:32;30.15;;;18.00;;
67941;SDS011;54731;42.600;23.476;2023-03-03T14:25:11;28.38;;;16.70;;
67941;SDS011;54731;42.600;23.476;2023-03-03T14:35:35;26.33;;;15.68;;
67941;SDS011;54731;42.600;23.476;2023-03-03T14:40:37;28.83;;;16.83;;
67941;SDS011;54731;42.600;23.476;2023-03-03T14:43:07;29.48;;;17.40;;
67941;SDS011;54731;42.600;23.476;2023-03-03T14:45:45;37.75;;;21.92;;
67941;SDS011;54731;42.600;23.476;2023-03-03T14:48:15;34.07;;;21.37;;
67941;SDS011;54731;42.600;23.476;2023-03-03T14:50:47;32.50;;;19.10;;
67941;SDS011;54731;42.600;23.476;2023-03-03T14:55:46;27.83;;;16.57;;
67941;SDS011;54731;42.600;23.476;2023-03-03T14:58:28;22.77;;;13.98;;
67941;SDS011;54731;42.600;23.476;2023-03-03T15:04:32;23.35;;;15.45;;
67941;SDS011;54731;42.600;23.476;2023-03-03T15:06:48;23.77;;;16.08;;
67941;SDS011;54731;42.600;23.476;2023-03-03T15:09:31;36.15;;;18.63;;
67941;SDS011;54731;42.600;23.476;2023-03-03T15:11:57;28.45;;;17.70;;
67941;SDS011;54731;42.600;23.476;2023-03-03T15:14:30;27.83;;;16.73;;
67941;SDS011;54731;42.600;23.476;2023-03-03T15:17:23;24.52;;;15.57;;
67941;SDS011;54731;42.600;23.476;2023-03-03T15:20:00;25.48;;;15.43;;
67941;SDS011;54731;42.600;23.476;2023-03-03T15:22:42;25.95;;;15.98;;
67941;SDS011;54731;42.600;23.476;2023-03-03T15:28:00;24.63;;;14.87;;
67941;SDS011;54731;42.600;23.476;2023-03-03T15:35:51;23.38;;;15.75;;
67941;SDS011;54731;42.600;23.476;2023-03-03T15:41:01;28.20;;;17.23;;
67941;SDS011;54731;42.600;23.476;2023-03-03T15:52:03;22.08;;;13.38;;
67941;SDS011;54731;42.600;23.476;2023-03-03T15:55:15;28.80;;;17.70;;
67941;SDS011;54731;42.600;23.476;2023-03-03T16:03:31;45.00;;;28.30;;
67941;SDS011;54731;42.600;23.476;2023-03-03T16:06:11;35.83;;;22.90;;
67941;SDS011;54731;42.600;23.476;2023-03-03T16:11:14;172.55;;;81.38;;
67941;SDS011;54731;42.600;23.476;2023-03-03T16:19:16;58.72;;;33.78;;
67941;SDS011;54731;42.600;23.476;2023-03-03T16:22:03;51.70;;;29.80;;
67941;SDS011;54731;42.600;23.476;2023-03-03T16:24:50;77.43;;;44.90;;
67941;SDS011;54731;42.600;23.476;2023-03-03T16:33:09;52.05;;;26.48;;
67941;SDS011;54731;42.600;23.476;2023-03-03T16:35:21;114.00;;;36.55;;
67941;SDS011;54731;42.600;23.476;2023-03-03T16:38:01;137.43;;;42.10;;
67941;SDS011;54731;42.600;23.476;2023-03-03T16:40:52;108.05;;;35.78;;
67941;SDS011;54731;42.600;23.476;2023-03-03T16:43:45;58.05;;;25.13;;
67941;SDS011;54731;42.600;23.476;2023-03-03T16:49:17;96.50;;;36.28;;
67941;SDS011;54731;42.600;23.476;2023-03-03T16:52:07;106.75;;;33.35;;
67941;SDS011;54731;42.600;23.476;2023-03-03T16:59:54;40.08;;;19.60;;
67941;SDS011;54731;42.600;23.476;2023-03-03T17:07:43;56.03;;;25.88;;
67941;SDS011;54731;42.600;23.476;2023-03-03T17:13:14;153.15;;;58.30;;
67941;SDS011;54731;42.600;23.476;2023-03-03T17:15:51;139.95;;;55.78;;
67941;SDS011;54731;42.600;23.476;2023-03-03T17:18:51;127.40;;;62.10;;
67941;SDS011;54731;42.600;23.476;2023-03-03T17:22:07;92.93;;;42.15;;
67941;SDS011;54731;42.600;23.476;2023-03-03T17:43:30;85.07;;;23.85;;
67941;SDS011;54731;42.600;23.476;2023-03-03T17:45:59;49.28;;;17.30;;
67941;SDS011;54731;42.600;23.476;2023-03-03T17:56:32;59.40;;;17.27;;
67941;SDS011;54731;42.600;23.476;2023-03-03T17:59:24;33.00;;;13.38;;
67941;SDS011;54731;42.600;23.476;2023-03-03T18:19:13;31.25;;;12.23;;
67941;SDS011;54731;42.600;23.476;2023-03-03T18:21:57;44.63;;;16.02;;
67941;SDS011;54731;42.600;23.476;2023-03-03T18:24:35;63.53;;;17.02;;
67941;SDS011;54731;42.600;23.476;2023-03-03T18:32:42;35.17;;;13.65;;
67941;SDS011;54731;42.600;23.476;2023-03-03T18:46:10;53.25;;;31.73;;
67941;SDS011;54731;42.600;23.476;2023-03-03T18:59:38;23.13;;;16.15;;
67941;SDS011;54731;42.600;23.476;2023-03-03T19:04:37;72.90;;;40.13;;
67941;SDS011;54731;42.600;23.476;2023-03-03T19:09:47;68.10;;;40.70;;
67941;SDS011;54731;42.600;23.476;2023-03-03T19:12:15;42.10;;;27.25;;
67941;SDS011;54731;42.600;23.476;2023-03-03T19:14:45;32.80;;;21.67;;
67941;SDS011;54731;42.600;23.476;2023-03-03T19:22:45;29.20;;;18.05;;
67941;SDS011;54731;42.600;23.476;2023-03-03T19:25:13;37.00;;;21.70;;
67941;SDS011;54731;42.600;23.476;2023-03-03T19:27:54;55.80;;;33.00;;
67941;SDS011;54731;42.600;23.476;2023-03-03T19:30:38;51.90;;;33.42;;
67941;SDS011;54731;42.600;23.476;2023-03-03T19:45:27;71.72;;;33.80;;
67941;SDS011;54731;42.600;23.476;2023-03-03T19:50:42;61.37;;;27.30;;
67941;SDS011;54731;42.600;23.476;2023-03-03T19:53:18;74.03;;;31.15;;
67941;SDS011;54731;42.600;23.476;2023-03-03T20:01:12;43.67;;;25.13;;
67941;SDS011;54731;42.600;23.476;2023-03-03T20:03:57;33.85;;;19.85;;
67941;SDS011;54731;42.600;23.476;2023-03-03T20:06:43;25.13;;;15.52;;
67941;SDS011;54731;42.600;23.476;2023-03-03T20:14:47;24.42;;;16.75;;
67941;SDS011;54731;42.600;23.476;2023-03-03T20:23:20;24.63;;;15.98;;
67941;SDS011;54731;42.600;23.476;2023-03-03T20:26:00;23.90;;;14.90;;
67941;SDS011;54731;42.600;23.476;2023-03-03T20:28:55;25.98;;;17.30;;
67941;SDS011;54731;42.600;23.476;2023-03-03T20:31:57;17.63;;;11.90;;
67941;SDS011;54731;42.600;23.476;2023-03-03T20:43:07;30.58;;;18.98;;
67941;SDS011;54731;42.600;23.476;2023-03-03T20:51:21;47.55;;;24.50;;
67941;SDS011;54731;42.600;23.476;2023-03-03T20:54:04;46.67;;;23.87;;
67941;SDS011;54731;42.600;23.476;2023-03-03T21:06:53;43.53;;;23.57;;
67941;SDS011;54731;42.600;23.476;2023-03-03T21:12:00;54.92;;;29.02;;
67941;SDS011;54731;42.600;23.476;2023-03-03T21:14:34;59.85;;;30.38;;
67941;SDS011;54731;42.600;23.476;2023-03-03T21:16:59;51.07;;;26.63;;
67941;SDS011;54731;42.600;23.476;2023-03-03T21:19:35;42.08;;;22.95;;
67941;SDS011;54731;42.600;23.476;2023-03-03T21:22:00;46.57;;;23.63;;
67941;SDS011;54731;42.600;23.476;2023-03-03T21:27:25;47.58;;;27.48;;
67941;SDS011;54731;42.600;23.476;2023-03-03T21:32:34;47.92;;;26.33;;
67941;SDS011;54731;42.600;23.476;2023-03-03T21:35:11;46.47;;;25.30;;
67941;SDS011;54731;42.600;23.476;2023-03-03T21:37:48;38.88;;;21.25;;
67941;SDS011;54731;42.600;23.476;2023-03-03T21:40:21;43.45;;;24.20;;
67941;SDS011;54731;42.600;23.476;2023-03-03T21:42:48;43.53;;;23.65;;
67941;SDS011;54731;42.600;23.476;2023-03-03T21:45:15;49.67;;;26.40;;